createdAt,value
2022-12-08T00:00:06.855Z,-1.10
2022-12-08T00:03:48.859Z,-1.20
2022-12-08T00:07:49.230Z,-1.20
2022-12-08T00:11:31.101Z,-1.30
2022-12-08T00:15:12.932Z,-1.40
2022-12-08T00:18:54.647Z,-1.50
2022-12-08T00:22:36.502Z,-1.50
2022-12-08T00:26:18.250Z,-1.50
2022-12-08T00:30:00.016Z,-1.50
2022-12-08T00:33:41.826Z,-1.50
2022-12-08T00:37:23.615Z,-1.50
2022-12-08T00:41:12.476Z,-1.50
2022-12-08T00:44:54.639Z,-1.50
2022-12-08T00:48:36.600Z,-1.50
2022-12-08T00:52:18.335Z,-1.50
2022-12-08T00:56:01.495Z,-1.50
2022-12-08T00:59:43.243Z,-1.50
2022-12-08T01:03:25.572Z,-1.50
2022-12-08T01:07:07.680Z,-1.50
2022-12-08T01:11:20.123Z,-1.60
2022-12-08T01:15:02.653Z,-1.60
2022-12-08T01:18:44.729Z,-1.70
2022-12-08T01:22:26.683Z,-1.70
2022-12-08T01:26:10.763Z,-1.80
2022-12-08T01:29:52.506Z,-1.80
2022-12-08T01:33:34.292Z,-1.80
2022-12-08T01:37:16.065Z,-1.90
2022-12-08T01:40:58.202Z,-1.90
2022-12-08T01:44:40.424Z,-1.90
2022-12-08T01:48:27.130Z,-1.90
2022-12-08T01:52:16.873Z,-1.90
2022-12-08T01:56:12.090Z,-1.80
2022-12-08T02:00:01.172Z,-1.80
2022-12-08T02:03:51.263Z,-1.80
2022-12-08T02:07:34.630Z,-1.80
2022-12-08T02:11:16.720Z,-1.80
2022-12-08T02:15:04.839Z,-1.80
2022-12-08T02:19:31.372Z,-1.90
2022-12-08T02:23:54.576Z,-1.90
2022-12-08T02:27:54.181Z,-1.90
2022-12-08T02:32:20.497Z,-2.00
2022-12-08T02:36:15.137Z,-1.90
2022-12-08T02:40:15.607Z,-1.90
2022-12-08T02:44:15.952Z,-2.00
2022-12-08T02:47:59.164Z,-1.90
2022-12-08T02:51:41.471Z,-1.90
2022-12-08T02:55:47.918Z,-1.80
2022-12-08T02:59:40.554Z,-1.80
2022-12-08T03:03:35.296Z,-1.70
2022-12-08T03:07:29.131Z,-1.70
2022-12-08T03:11:13.610Z,-1.70
2022-12-08T03:15:00.266Z,-1.70
2022-12-08T03:18:48.687Z,-1.70
2022-12-08T03:22:31.425Z,-1.70
2022-12-08T03:26:19.357Z,-1.70
2022-12-08T03:30:02.015Z,-1.80
2022-12-08T03:33:47.020Z,-1.80
2022-12-08T03:37:29.155Z,-1.80
2022-12-08T03:41:20.478Z,-1.80
2022-12-08T03:45:02.162Z,-1.80
2022-12-08T03:48:43.854Z,-1.80
2022-12-08T03:52:25.614Z,-1.80
2022-12-08T03:56:28.472Z,-1.90
2022-12-08T04:00:15.396Z,-1.90
2022-12-08T04:03:57.234Z,-1.90
2022-12-08T04:07:39.170Z,-1.90
2022-12-08T04:11:21.610Z,-2.00
2022-12-08T04:15:03.604Z,-1.90
2022-12-08T04:18:45.974Z,-2.00
2022-12-08T04:22:27.774Z,-1.90
2022-12-08T04:26:10.389Z,-1.90
2022-12-08T04:29:52.173Z,-1.90
2022-12-08T04:33:35.174Z,-1.90
2022-12-08T04:37:16.915Z,-1.90
2022-12-08T04:40:58.916Z,-1.90
2022-12-08T04:44:40.662Z,-1.90
2022-12-08T04:48:22.482Z,-1.90
2022-12-08T04:52:04.424Z,-1.90
2022-12-08T04:55:48.584Z,-1.90
2022-12-08T04:59:30.499Z,-1.90
2022-12-08T05:03:12.570Z,-1.80
2022-12-08T05:06:54.324Z,-1.80
2022-12-08T05:10:36.355Z,-1.70
2022-12-08T05:14:19.563Z,-1.60
2022-12-08T05:18:01.350Z,-1.50
2022-12-08T05:21:43.299Z,-1.50
2022-12-08T05:25:25.105Z,-1.40
2022-12-08T05:29:06.952Z,-1.20
2022-12-08T05:32:48.703Z,-1.10
2022-12-08T05:36:30.599Z,-1.00
2022-12-08T05:40:12.490Z,-0.90
2022-12-08T05:43:54.220Z,-0.80
2022-12-08T05:47:36.420Z,-0.80
2022-12-08T05:51:21.299Z,-0.80
2022-12-08T05:55:03.864Z,-0.90
2022-12-08T05:58:46.151Z,-1.00
2022-12-08T06:02:28.058Z,-1.10
2022-12-08T06:06:09.878Z,-1.10
2022-12-08T06:09:51.617Z,-1.10
2022-12-08T06:13:33.357Z,-1.00
2022-12-08T06:17:15.096Z,-1.00
2022-12-08T06:21:07.819Z,-0.80
2022-12-08T06:24:49.585Z,-0.70
2022-12-08T06:28:32.274Z,-0.50
2022-12-08T06:32:14.188Z,-0.50
2022-12-08T06:35:58.319Z,-0.50
2022-12-08T06:39:40.223Z,-0.60
2022-12-08T06:43:22.666Z,-0.70
2022-12-08T06:47:04.428Z,-0.80
2022-12-08T06:50:46.347Z,-0.80
2022-12-08T06:54:28.180Z,-1.00
2022-12-08T06:58:10.374Z,-1.10
2022-12-08T07:01:52.618Z,-1.20
2022-12-08T07:05:35.548Z,-1.30
2022-12-08T07:09:17.355Z,-1.40
2022-12-08T07:12:59.077Z,-1.50
2022-12-08T07:16:40.873Z,-1.50
2022-12-08T07:20:22.659Z,-1.50
2022-12-08T07:24:04.695Z,-1.60
2022-12-08T07:27:46.798Z,-1.60
2022-12-08T07:31:29.018Z,-1.60
2022-12-08T07:35:11.167Z,-1.70
2022-12-08T07:38:53.779Z,-1.70
2022-12-08T07:42:35.741Z,-1.70
2022-12-08T07:46:20.478Z,-1.70
2022-12-08T07:50:02.475Z,-1.60
2022-12-08T07:53:51.657Z,-1.70
2022-12-08T07:57:35.063Z,-1.60
2022-12-08T08:01:29.213Z,-1.60
2022-12-08T08:05:14.616Z,-1.60
2022-12-08T08:08:56.410Z,-1.60
2022-12-08T08:12:38.722Z,-1.60
2022-12-08T08:16:21.417Z,-1.60
2022-12-08T08:20:07.208Z,-1.60
2022-12-08T08:23:49.245Z,-1.50
2022-12-08T08:27:31.004Z,-1.60
2022-12-08T08:31:13.137Z,-1.50
2022-12-08T08:34:55.004Z,-1.50
2022-12-08T08:38:40.289Z,-1.50
2022-12-08T08:42:22.632Z,-1.40
2022-12-08T08:46:05.503Z,-1.10
2022-12-08T08:49:47.249Z,-0.70
2022-12-08T08:53:29.047Z,-0.20
2022-12-08T08:57:10.839Z,0.30
2022-12-08T09:00:52.610Z,0.80
2022-12-08T09:04:34.466Z,1.30
2022-12-08T09:08:16.498Z,1.70
2022-12-08T09:11:58.391Z,2.20
2022-12-08T09:15:40.646Z,2.70
2022-12-08T09:19:22.481Z,3.20
2022-12-08T09:23:04.254Z,3.70
2022-12-08T09:26:47.104Z,4.30
2022-12-08T09:30:28.935Z,4.90
2022-12-08T09:34:12.752Z,5.40
2022-12-08T09:37:54.534Z,6.00
2022-12-08T09:41:48.316Z,6.60
2022-12-08T09:45:34.732Z,7.20
2022-12-08T09:49:21.520Z,7.90
2022-12-08T09:53:35.353Z,8.50
2022-12-08T09:57:21.537Z,9.20
2022-12-08T10:01:03.397Z,9.80
2022-12-08T10:04:45.360Z,10.30
2022-12-08T10:08:38.998Z,10.80
2022-12-08T10:12:36.712Z,11.30
2022-12-08T10:16:44.365Z,11.80
2022-12-08T10:20:38.148Z,12.40
2022-12-08T10:24:27.321Z,12.70
2022-12-08T10:28:09.404Z,13.10
2022-12-08T10:31:51.323Z,13.50
2022-12-08T10:35:49.158Z,13.90
2022-12-08T10:39:30.923Z,14.20
2022-12-08T10:43:22.811Z,14.70
2022-12-08T10:47:13.172Z,15.30
2022-12-08T10:50:56.358Z,15.90
2022-12-08T10:54:42.568Z,16.30
2022-12-08T10:58:40.805Z,16.70
2022-12-08T11:02:23.369Z,17.10
2022-12-08T11:06:40.746Z,17.40
2022-12-08T11:10:33.955Z,17.80
2022-12-08T11:14:29.252Z,18.10
2022-12-08T11:18:39.209Z,18.30
2022-12-08T11:22:42.334Z,18.40
2022-12-08T11:26:33.687Z,18.50
2022-12-08T11:30:27.978Z,18.70
2022-12-08T11:34:26.532Z,18.90
2022-12-08T11:38:21.651Z,19.00
2022-12-08T11:42:06.984Z,19.00
2022-12-08T11:45:56.235Z,19.20
2022-12-08T11:49:40.341Z,19.50
2022-12-08T11:53:53.024Z,19.90
2022-12-08T11:57:34.818Z,20.30
2022-12-08T12:01:21.187Z,20.50
2022-12-08T12:06:05.764Z,20.20
2022-12-08T12:10:05.222Z,20.00
2022-12-08T12:14:22.556Z,20.00
2022-12-08T12:18:31.912Z,20.00
2022-12-08T12:22:20.488Z,20.30
2022-12-08T12:26:05.826Z,20.70
2022-12-08T12:30:21.355Z,20.90
2022-12-08T12:34:20.650Z,21.00
2022-12-08T12:38:45.857Z,21.20
2022-12-08T12:42:44.467Z,21.30
2022-12-08T12:46:26.280Z,21.30
2022-12-08T12:50:08.619Z,21.20
2022-12-08T12:53:50.818Z,21.10
2022-12-08T12:57:54.006Z,21.00
2022-12-08T13:01:52.230Z,21.10
2022-12-08T13:05:49.520Z,21.10
2022-12-08T13:09:36.834Z,21.20
2022-12-08T13:13:19.183Z,21.20
2022-12-08T13:17:04.791Z,21.30
2022-12-08T13:20:51.419Z,21.40
2022-12-08T13:24:34.926Z,21.40
2022-12-08T13:28:16.617Z,21.70
2022-12-08T13:32:03.475Z,21.90
2022-12-08T13:35:55.678Z,21.90
2022-12-08T13:39:40.565Z,21.80
2022-12-08T13:43:51.298Z,21.70
2022-12-08T13:48:30.146Z,21.60
2022-12-08T14:00:28.637Z,20.90
2022-12-08T14:08:59.986Z,21.70
2022-12-08T14:12:36.688Z,21.80
2022-12-08T14:16:39.049Z,22.10
2022-12-08T14:20:25.493Z,21.40
2022-12-08T14:24:07.305Z,20.20
2022-12-08T14:27:49.895Z,18.70
2022-12-08T14:31:31.809Z,17.30
2022-12-08T14:35:27.497Z,16.20
2022-12-08T14:39:09.462Z,15.10
2022-12-08T14:42:54.449Z,14.30
2022-12-08T14:46:36.298Z,13.60
2022-12-08T14:50:40.028Z,12.90
2022-12-08T14:54:21.858Z,12.20
2022-12-08T14:58:04.746Z,11.60
2022-12-08T15:01:48.306Z,11.10
2022-12-08T15:05:32.019Z,10.60
2022-12-08T15:09:28.916Z,10.10
2022-12-08T15:13:10.626Z,9.60
2022-12-08T15:16:54.179Z,9.20
2022-12-08T15:20:38.934Z,8.90
2022-12-08T15:24:25.057Z,8.50
2022-12-08T15:28:09.324Z,8.20
2022-12-08T15:31:53.311Z,7.90
2022-12-08T15:35:40.541Z,7.60
2022-12-08T15:39:35.411Z,7.30
2022-12-08T15:43:17.469Z,7.10
2022-12-08T15:47:00.140Z,6.90
2022-12-08T15:50:41.935Z,6.60
2022-12-08T15:54:23.764Z,6.50
2022-12-08T16:02:14.519Z,6.20
2022-12-08T16:06:50.930Z,6.10
2022-12-08T16:10:06.715Z,5.90
2022-12-08T16:14:19.869Z,5.80
2022-12-08T16:17:53.791Z,5.70
2022-12-08T16:26:15.661Z,5.50
2022-12-08T16:29:39.743Z,5.40
2022-12-08T16:33:22.629Z,5.20
2022-12-08T16:37:04.453Z,5.10
2022-12-08T16:41:06.003Z,5.00
2022-12-08T16:44:47.759Z,4.80
2022-12-08T16:48:29.923Z,4.70
2022-12-08T16:52:11.748Z,4.60
2022-12-08T16:55:53.553Z,4.50
2022-12-08T16:59:35.358Z,4.40
2022-12-08T17:03:17.630Z,4.40
2022-12-08T17:07:00.106Z,4.30
2022-12-08T17:10:41.976Z,4.30
2022-12-08T17:14:23.791Z,4.30
2022-12-08T17:18:05.743Z,4.10
2022-12-08T17:21:47.588Z,4.10
2022-12-08T17:25:29.318Z,4.10
2022-12-08T17:29:11.089Z,4.10
2022-12-08T17:32:52.998Z,4.10
2022-12-08T17:36:34.808Z,4.00
2022-12-08T17:40:16.598Z,3.90
2022-12-08T17:43:58.396Z,3.80
2022-12-08T17:47:40.182Z,3.80
2022-12-08T17:51:21.957Z,3.70
2022-12-08T17:55:04.224Z,3.70
2022-12-08T17:58:52.596Z,3.60
2022-12-08T18:02:37.949Z,3.60
2022-12-08T18:06:20.106Z,3.50
2022-12-08T18:10:01.857Z,3.50
2022-12-08T18:13:43.755Z,3.50
2022-12-08T18:17:25.582Z,3.50
2022-12-08T18:21:08.407Z,3.50
2022-12-08T18:24:50.386Z,3.40
2022-12-08T18:28:32.546Z,3.40
2022-12-08T18:32:14.300Z,3.40
2022-12-08T18:35:56.151Z,3.30
2022-12-08T18:39:37.897Z,3.30
2022-12-08T18:43:19.636Z,3.30
2022-12-08T18:47:01.379Z,3.20
2022-12-08T18:50:44.746Z,3.20
2022-12-08T18:54:37.028Z,3.10
2022-12-08T18:58:28.393Z,3.00
2022-12-08T19:02:13.504Z,2.90
2022-12-08T19:06:06.246Z,2.80
2022-12-08T19:09:48.180Z,2.60
2022-12-08T19:13:30.649Z,2.40
2022-12-08T19:17:12.440Z,2.30
2022-12-08T19:20:56.876Z,2.10
2022-12-08T19:24:38.717Z,1.90
2022-12-08T19:28:20.697Z,1.80
2022-12-08T19:32:05.105Z,1.60
2022-12-08T19:35:52.211Z,1.50
2022-12-08T19:39:53.210Z,1.30
2022-12-08T19:43:53.607Z,1.20
2022-12-08T19:47:35.458Z,1.00
2022-12-08T19:51:17.295Z,0.90
2022-12-08T19:54:59.087Z,0.80
2022-12-08T19:58:40.832Z,0.70
2022-12-08T20:02:22.808Z,0.60
2022-12-08T20:06:04.734Z,0.50
2022-12-08T20:09:46.504Z,0.40
2022-12-08T20:13:45.716Z,0.30
2022-12-08T20:17:27.633Z,0.30
2022-12-08T20:21:10.806Z,0.10
2022-12-08T20:24:59.405Z,0.00
2022-12-08T20:28:42.865Z,-0.10
2022-12-08T20:32:24.616Z,-0.10
2022-12-08T20:36:08.055Z,-0.20
2022-12-08T20:39:49.865Z,-0.30
2022-12-08T20:43:31.632Z,-0.40
2022-12-08T20:47:13.885Z,-0.40
2022-12-08T20:50:55.714Z,-0.40
2022-12-08T20:54:38.106Z,-0.30
2022-12-08T20:58:19.963Z,-0.40
2022-12-08T21:02:02.147Z,-0.40
2022-12-08T21:05:49.412Z,-0.50
2022-12-08T21:09:31.508Z,-0.60
2022-12-08T21:13:13.417Z,-0.60
2022-12-08T21:16:56.259Z,-0.70
2022-12-08T21:20:38.269Z,-0.80
2022-12-08T21:24:20.651Z,-0.90
2022-12-08T21:28:03.162Z,-1.00
2022-12-08T21:31:45.066Z,-1.10
2022-12-08T21:35:27.335Z,-1.20
2022-12-08T21:39:12.845Z,-1.20
2022-12-08T21:42:54.847Z,-1.20
2022-12-08T21:46:37.156Z,-1.30
2022-12-08T21:50:19.255Z,-1.30
2022-12-08T21:54:01.064Z,-1.30
2022-12-08T21:57:43.495Z,-1.30
2022-12-08T22:01:25.397Z,-1.40
2022-12-08T22:05:07.914Z,-1.40
2022-12-08T22:08:51.013Z,-1.40
2022-12-08T22:12:33.670Z,-1.50
2022-12-08T22:16:15.537Z,-1.50
2022-12-08T22:19:57.923Z,-1.50
2022-12-08T22:23:39.958Z,-1.60
2022-12-08T22:27:21.801Z,-1.60
2022-12-08T22:31:17.255Z,-1.60
2022-12-08T22:34:59.046Z,-1.70
2022-12-08T22:38:40.780Z,-1.70
2022-12-08T22:42:22.515Z,-1.70
2022-12-08T22:46:14.394Z,-1.70
2022-12-08T22:49:56.385Z,-1.80
2022-12-08T22:53:38.709Z,-1.80
2022-12-08T22:57:20.463Z,-1.90
2022-12-08T23:01:02.663Z,-2.00
2022-12-08T23:04:46.375Z,-2.00
2022-12-08T23:08:28.617Z,-2.10
2022-12-08T23:12:10.617Z,-2.10
2022-12-08T23:15:52.993Z,-2.20
2022-12-08T23:19:36.748Z,-2.20
2022-12-08T23:23:18.663Z,-2.20
2022-12-08T23:27:00.725Z,-2.20
2022-12-08T23:30:42.656Z,-2.20
2022-12-08T23:34:24.912Z,-2.30
2022-12-08T23:38:07.072Z,-2.30
2022-12-08T23:41:48.992Z,-2.30
2022-12-08T23:45:31.294Z,-2.40
2022-12-08T23:49:13.236Z,-2.50
2022-12-08T23:52:55.066Z,-2.60
2022-12-08T23:56:36.913Z,-2.60
